createdAt,value
2019-02-25T00:02:25.638Z,6.47
2019-02-25T00:07:20.230Z,6.40
2019-02-25T00:12:15.780Z,6.40
2019-02-25T00:17:10.365Z,6.00
2019-02-25T00:22:05.077Z,6.93
2019-02-25T00:26:59.682Z,6.07
2019-02-25T00:31:54.263Z,4.80
2019-02-25T00:36:48.854Z,6.17
2019-02-25T00:41:43.441Z,5.63
2019-02-25T00:46:38.012Z,6.03
2019-02-25T00:51:32.598Z,6.27
2019-02-25T00:56:27.177Z,5.50
2019-02-25T01:01:21.761Z,5.57
2019-02-25T01:06:16.445Z,6.10
2019-02-25T01:11:11.088Z,5.93
2019-02-25T01:16:05.681Z,5.53
2019-02-25T01:21:00.269Z,5.33
2019-02-25T01:25:54.868Z,5.00
2019-02-25T01:30:49.453Z,4.77
2019-02-25T01:35:44.045Z,5.47
2019-02-25T01:40:38.624Z,5.40
2019-02-25T01:45:33.206Z,5.27
2019-02-25T01:50:27.785Z,4.40
2019-02-25T01:55:22.349Z,4.50
2019-02-25T02:00:18.946Z,4.50
2019-02-25T02:05:14.057Z,4.20
2019-02-25T02:10:13.048Z,4.10
2019-02-25T02:15:12.510Z,3.70
2019-02-25T02:20:11.512Z,4.13
2019-02-25T02:25:08.090Z,4.10
2019-02-25T02:30:02.692Z,3.93
2019-02-25T02:34:57.256Z,3.60
2019-02-25T02:39:51.818Z,3.83
2019-02-25T02:44:50.391Z,3.50
2019-02-25T02:49:45.035Z,3.40
2019-02-25T02:54:39.629Z,3.77
2019-02-25T02:59:34.211Z,3.47
2019-02-25T03:04:28.787Z,3.43
2019-02-25T03:09:23.384Z,3.50
2019-02-25T03:14:17.965Z,3.40
2019-02-25T03:19:12.549Z,3.60
2019-02-25T03:24:07.125Z,3.90
2019-02-25T03:29:01.707Z,4.03
2019-02-25T03:33:56.294Z,3.60
2019-02-25T03:38:50.868Z,3.40
2019-02-25T03:43:45.451Z,4.03
2019-02-25T03:48:40.049Z,4.10
2019-02-25T03:53:34.617Z,5.10
2019-02-25T03:58:29.215Z,4.27
2019-02-25T04:03:23.843Z,4.97
2019-02-25T04:08:18.573Z,4.87
2019-02-25T04:13:13.224Z,3.90
2019-02-25T04:18:07.821Z,3.80
2019-02-25T04:23:02.413Z,3.90
2019-02-25T04:27:57.006Z,4.77
2019-02-25T04:32:51.594Z,5.00
2019-02-25T04:37:46.189Z,4.20
2019-02-25T04:42:40.758Z,4.00
2019-02-25T04:47:35.420Z,3.73
2019-02-25T04:52:30.009Z,4.23
2019-02-25T04:57:24.609Z,4.87
2019-02-25T05:02:19.176Z,6.57
2019-02-25T05:07:13.863Z,7.50
2019-02-25T05:12:08.457Z,6.63
2019-02-25T05:17:03.024Z,4.77
2019-02-25T05:21:57.619Z,5.63
2019-02-25T05:26:52.196Z,5.13
2019-02-25T05:31:46.812Z,4.70
2019-02-25T05:36:41.380Z,4.77
2019-02-25T05:41:35.963Z,8.30
2019-02-25T05:46:30.533Z,5.30
2019-02-25T05:51:25.139Z,6.43
2019-02-25T05:56:19.715Z,5.20
2019-02-25T06:01:14.301Z,6.20
2019-02-25T06:06:08.882Z,5.33
2019-02-25T06:11:03.468Z,5.13
2019-02-25T06:15:58.113Z,10.40
2019-02-25T06:20:52.710Z,9.10
2019-02-25T06:25:47.274Z,6.27
2019-02-25T06:30:41.843Z,8.93
2019-02-25T06:35:36.469Z,7.53
2019-02-25T06:40:31.061Z,9.13
2019-02-25T06:45:38.986Z,10.13
2019-02-25T06:50:36.342Z,9.73
2019-02-25T06:55:31.480Z,7.97
2019-02-25T07:00:26.111Z,12.50
2019-02-25T07:05:23.283Z,15.07
2019-02-25T07:10:21.929Z,9.40
2019-02-25T07:15:20.680Z,13.53
2019-02-25T07:20:19.619Z,9.53
2019-02-25T07:25:29.104Z,8.80
2019-02-25T07:30:25.319Z,10.43
2019-02-25T07:35:27.639Z,9.33
2019-02-25T07:40:30.072Z,13.83
2019-02-25T07:45:26.304Z,8.50
2019-02-25T07:50:22.598Z,8.73
2019-02-25T07:55:28.979Z,7.37
2019-02-25T08:00:28.127Z,7.27
2019-02-25T08:05:30.253Z,7.00
2019-02-25T08:10:35.171Z,7.13
2019-02-25T08:15:34.038Z,5.67
2019-02-25T08:20:32.330Z,5.90
2019-02-25T08:25:54.027Z,5.60
2019-02-25T08:30:55.208Z,5.57
2019-02-25T08:36:03.024Z,5.27
2019-02-25T08:41:04.491Z,4.93
2019-02-25T08:46:03.564Z,5.20
2019-02-25T08:50:58.752Z,4.90
2019-02-25T08:55:53.415Z,4.83
2019-02-25T09:00:48.254Z,6.00
2019-02-25T09:05:42.874Z,5.40
2019-02-25T09:10:37.448Z,5.63
2019-02-25T09:15:32.567Z,4.93
2019-02-25T09:20:27.180Z,4.67
2019-02-25T09:25:21.837Z,6.27
2019-02-25T09:30:18.993Z,5.57
2019-02-25T09:35:33.569Z,6.23
2019-02-25T09:40:43.052Z,6.00
2019-02-25T09:45:37.630Z,5.80
2019-02-25T09:50:32.296Z,6.33
2019-02-25T09:55:26.923Z,6.47
2019-02-25T10:00:23.632Z,7.23
2019-02-25T10:05:18.780Z,6.23
2019-02-25T10:10:17.403Z,5.90
2019-02-25T10:15:24.002Z,5.97
2019-02-25T10:20:27.293Z,6.13
2019-02-25T10:25:23.281Z,6.30
2019-02-25T10:30:20.663Z,5.97
2019-02-25T10:35:25.003Z,6.13
2019-02-25T10:40:24.047Z,6.43
2019-02-25T10:45:25.105Z,6.40
2019-02-25T10:50:19.898Z,6.50
2019-02-25T10:55:31.185Z,5.83
2019-02-25T11:00:26.402Z,6.03
2019-02-25T11:05:23.104Z,6.43
2019-02-25T11:10:36.186Z,6.20
2019-02-25T11:15:32.697Z,6.13
2019-02-25T11:20:29.141Z,5.83
2019-02-25T11:25:25.755Z,6.73
2019-02-25T11:30:21.258Z,5.77
2019-02-25T11:35:17.179Z,5.80
2019-02-25T11:40:17.228Z,5.90
2019-02-25T11:45:17.483Z,5.50
2019-02-25T11:50:15.250Z,6.00
2019-02-25T11:55:17.880Z,6.23
2019-02-25T12:00:26.041Z,5.67
2019-02-25T12:05:21.098Z,6.13
2019-02-25T12:10:18.486Z,5.77
2019-02-25T12:15:18.850Z,5.60
2019-02-25T12:20:15.215Z,6.30
2019-02-25T12:25:13.787Z,6.73
2019-02-25T12:30:28.758Z,6.70
2019-02-25T12:35:24.435Z,6.87
2019-02-25T12:40:20.719Z,6.60
2019-02-25T12:45:16.643Z,7.13
2019-02-25T12:50:16.628Z,6.60
2019-02-25T12:55:14.412Z,7.13
2019-02-25T13:00:24.066Z,6.90
2019-02-25T13:05:26.839Z,7.20
2019-02-25T13:10:21.422Z,7.20
2019-02-25T13:15:24.323Z,7.77
2019-02-25T13:20:19.319Z,6.80
2019-02-25T13:25:32.207Z,6.67
2019-02-25T13:30:27.277Z,6.23
2019-02-25T13:35:22.015Z,5.87
2019-02-25T13:40:18.810Z,5.70
2019-02-25T13:45:17.783Z,5.90
2019-02-25T13:50:17.589Z,6.67
2019-02-25T13:55:18.979Z,6.20
2019-02-25T14:00:24.167Z,5.10
2019-02-25T14:05:19.604Z,6.20
2019-02-25T14:10:18.083Z,5.57
2019-02-25T14:15:16.748Z,5.40
2019-02-25T14:20:20.484Z,4.87
2019-02-25T14:25:31.070Z,4.83
2019-02-25T14:30:27.983Z,5.10
2019-02-25T14:35:29.211Z,4.97
2019-02-25T14:40:26.217Z,5.10
2019-02-25T14:45:21.836Z,5.13
2019-02-25T14:50:22.340Z,6.10
2019-02-25T14:55:17.203Z,5.47
2019-02-25T15:00:28.405Z,5.93
2019-02-25T15:05:24.567Z,5.70
2019-02-25T15:10:19.245Z,6.23
2019-02-25T15:15:24.509Z,5.57
2019-02-25T15:20:21.465Z,5.70
2019-02-25T15:25:19.319Z,5.73
2019-02-25T15:30:31.506Z,5.40
2019-02-25T15:35:28.791Z,6.00
2019-02-25T15:40:23.245Z,5.40
2019-02-25T15:45:26.808Z,5.20
2019-02-25T15:50:21.506Z,5.30
2019-02-25T15:55:19.533Z,4.90
2019-02-25T16:00:21.251Z,4.90
2019-02-25T16:05:15.853Z,5.50
2019-02-25T16:10:16.274Z,6.80
2019-02-25T16:15:19.192Z,6.47
2019-02-25T16:20:21.864Z,5.43
2019-02-25T16:25:27.178Z,5.20
2019-02-25T16:30:23.583Z,5.13
2019-02-25T16:35:20.933Z,5.20
2019-02-25T16:40:24.404Z,5.30
2019-02-25T16:45:34.279Z,5.50
2019-02-25T16:50:24.558Z,4.90
2019-02-25T16:55:27.773Z,4.90
2019-02-25T17:00:29.876Z,4.90
2019-02-25T17:05:24.915Z,5.37
2019-02-25T17:10:25.974Z,5.30
2019-02-25T17:15:21.400Z,5.40
2019-02-25T17:20:18.703Z,5.13
2019-02-25T17:25:15.964Z,5.27
2019-02-25T17:30:22.431Z,6.03
2019-02-25T17:35:21.439Z,4.97
2019-02-25T17:40:18.567Z,4.60
2019-02-25T17:45:27.708Z,5.70
2019-02-25T17:50:24.109Z,6.33
2019-02-25T17:55:29.278Z,6.83
2019-02-25T18:00:33.882Z,6.70
2019-02-25T18:05:28.304Z,5.00
2019-02-25T18:10:23.493Z,6.03
2019-02-25T18:15:27.964Z,7.97
2019-02-25T18:20:23.322Z,8.67
2019-02-25T18:25:20.435Z,8.80
2019-02-25T18:30:26.347Z,7.43
2019-02-25T18:35:22.817Z,8.80
2019-02-25T18:40:20.605Z,8.87
2019-02-25T18:45:20.791Z,8.77
2019-02-25T18:50:24.143Z,8.97
2019-02-25T18:55:24.831Z,7.87
2019-02-25T19:00:41.911Z,8.23
2019-02-25T19:05:36.247Z,7.97
2019-02-25T19:10:30.845Z,6.93
2019-02-25T19:15:25.745Z,7.47
2019-02-25T19:20:20.486Z,7.57
2019-02-25T19:25:18.241Z,8.37
2019-02-25T19:30:19.747Z,7.87
2019-02-25T19:35:16.808Z,5.57
2019-02-25T19:40:19.579Z,5.03
2019-02-25T19:45:16.696Z,4.20
2019-02-25T19:50:18.235Z,4.03
2019-02-25T19:55:15.273Z,4.27
2019-02-25T20:00:22.023Z,4.33
2019-02-25T20:05:16.526Z,4.50
2019-02-25T20:10:13.780Z,4.17
2019-02-25T20:15:18.189Z,4.07
2019-02-25T20:20:15.052Z,4.17
2019-02-25T20:25:16.710Z,4.63
2019-02-25T20:30:23.514Z,4.70
2019-02-25T20:35:21.756Z,4.20
2019-02-25T20:40:19.149Z,4.80
2019-02-25T20:45:23.631Z,4.90
2019-02-25T20:50:21.940Z,5.07
2019-02-25T20:55:16.592Z,4.87
2019-02-25T21:00:19.890Z,5.13
2019-02-25T21:05:16.753Z,5.57
2019-02-25T21:10:16.858Z,5.20
2019-02-25T21:15:14.759Z,5.77
2019-02-25T21:20:16.033Z,5.97
2019-02-25T21:25:13.805Z,5.87
2019-02-25T21:30:13.207Z,6.10
2019-02-25T21:35:14.009Z,6.00
2019-02-25T21:40:13.251Z,5.83
2019-02-25T21:45:17.954Z,5.47
2019-02-25T21:50:17.199Z,6.60
2019-02-25T21:55:14.200Z,6.30
2019-02-25T22:00:21.581Z,5.43
2019-02-25T22:05:16.693Z,7.03
2019-02-25T22:10:18.741Z,6.63
2019-02-25T22:15:20.350Z,7.50
2019-02-25T22:20:17.086Z,7.13
2019-02-25T22:25:23.758Z,7.63
2019-02-25T22:30:19.734Z,8.00
2019-02-25T22:35:15.216Z,7.93
2019-02-25T22:40:17.950Z,10.67
2019-02-25T22:45:24.132Z,9.47
2019-02-25T22:50:18.866Z,8.40
2019-02-25T22:55:15.931Z,8.67
2019-02-25T23:00:33.787Z,8.90
2019-02-25T23:05:28.809Z,9.90
2019-02-25T23:10:24.228Z,11.03
2019-02-25T23:15:20.534Z,9.20
2019-02-25T23:20:15.480Z,9.47
2019-02-25T23:25:12.344Z,9.73
2019-02-25T23:30:13.865Z,8.90
2019-02-25T23:35:11.488Z,8.43
2019-02-25T23:40:16.805Z,8.00
2019-02-25T23:45:17.850Z,8.47
2019-02-25T23:50:17.806Z,8.70
2019-02-25T23:55:16.498Z,8.40
